Time;durP1;ratioP1;P1;durP2;ratioP2;P2;SDS_P1;SDS_P2;PMS_P1;PMS_P2;Temp;Humidity;BMP_temperature;BMP_pressure;BME280_temperature;BME280_humidity;BME280_pressure;Samples;Min_cycle;Max_cycle;Signal;HPM_P1;HPM_P2
2022/07/20 00:00:43;;;;;;;0.20;0.10;;;;;;;;;;6164639;23;20465;-86
2022/07/20 00:03:11;;;;;;;0.20;0.10;;;;;;;;;;6187726;23;20082;-84
2022/07/20 00:05:45;;;;;;;0.20;0.10;;;;;;;;;;6188397;23;20012;-87
2022/07/20 00:08:12;;;;;;;0.20;0.10;;;;;;;;;;6189979;23;20048;-88
2022/07/20 00:13:23;;;;;;;0.25;0.25;;;;;;;;;;6212753;23;20767;-86
2022/07/20 00:15:49;;;;;;;0.20;0.10;;;;;;;;;;6212117;23;20023;-86
2022/07/20 00:18:16;;;;;;;0.22;0.15;;;;;;;;;;6186350;23;20026;-87
2022/07/20 00:20:42;;;;;;;0.20;0.10;;;;;;;;;;6181735;23;20028;-87
2022/07/20 00:23:08;;;;;;;0.20;0.10;;;;;;;;;;6181653;23;20637;-85
2022/07/20 00:25:34;;;;;;;0.20;0.10;;;;;;;;;;6207733;23;20017;-87
2022/07/20 00:28:00;;;;;;;0.47;0.30;;;;;;;;;;6205772;23;20067;-85
2022/07/20 00:30:27;;;;;;;0.20;0.10;;;;;;;;;;6182740;23;20012;-84
2022/07/20 00:32:53;;;;;;;0.20;0.10;;;;;;;;;;6206302;23;20016;-88
2022/07/20 00:35:25;;;;;;;0.20;0.13;;;;;;;;;;6181828;23;20070;-86
2022/07/20 00:37:57;;;;;;;0.20;0.10;;;;;;;;;;6180969;23;20353;-89
2022/07/20 00:40:23;;;;;;;0.20;0.20;;;;;;;;;;6180925;23;20338;-86
2022/07/20 00:42:49;;;;;;;0.20;0.10;;;;;;;;;;6180977;23;20025;-86
2022/07/20 00:45:15;;;;;;;0.20;0.10;;;;;;;;;;6181004;23;20023;-86
2022/07/20 00:47:41;;;;;;;0.20;0.10;;;;;;;;;;6180840;23;20103;-88
2022/07/20 00:50:08;;;;;;;0.20;0.10;;;;;;;;;;6205089;23;20484;-86
2022/07/20 00:52:34;;;;;;;0.25;0.10;;;;;;;;;;6181385;23;20020;-89
2022/07/20 00:55:00;;;;;;;0.20;0.10;;;;;;;;;;6157125;23;20047;-87
2022/07/20 00:57:26;;;;;;;0.20;0.10;;;;;;;;;;6181244;23;20052;-87
2022/07/20 00:59:52;;;;;;;0.20;0.10;;;;;;;;;;6155949;23;20453;-87
2022/07/20 01:02:18;;;;;;;0.20;0.10;;;;;;;;;;6209328;23;20681;-83
2022/07/20 01:04:44;;;;;;;0.20;0.10;;;;;;;;;;6155216;23;20020;-87
2022/07/20 01:07:11;;;;;;;0.20;0.17;;;;;;;;;;6156221;23;20028;-88
2022/07/20 01:09:37;;;;;;;0.20;0.15;;;;;;;;;;6180054;23;20181;-87
2022/07/20 01:12:03;;;;;;;0.20;0.10;;;;;;;;;;6179690;23;20013;-84
2022/07/20 01:14:29;;;;;;;0.20;0.10;;;;;;;;;;6181174;23;20012;-87
2022/07/20 01:16:55;;;;;;;0.20;0.10;;;;;;;;;;6157227;23;20017;-87
2022/07/20 01:19:21;;;;;;;0.20;0.10;;;;;;;;;;6155104;23;20024;-86
2022/07/20 01:21:47;;;;;;;0.20;0.10;;;;;;;;;;6181169;23;20480;-86
2022/07/20 01:24:14;;;;;;;0.20;0.10;;;;;;;;;;6156731;23;20012;-86
2022/07/20 01:26:40;;;;;;;0.20;0.10;;;;;;;;;;6205785;23;20017;-83
2022/07/20 01:29:07;;;;;;;0.20;0.10;;;;;;;;;;6205792;23;20019;-86
2022/07/20 01:31:33;;;;;;;0.20;0.10;;;;;;;;;;6205605;23;20012;-88
2022/07/20 01:33:59;;;;;;;0.20;0.10;;;;;;;;;;6206235;23;20024;-88
2022/07/20 01:36:25;;;;;;;0.20;0.10;;;;;;;;;;6180405;23;20020;-87
2022/07/20 01:38:52;;;;;;;0.20;0.20;;;;;;;;;;6207593;23;20017;-86
2022/07/20 01:41:18;;;;;;;0.20;0.10;;;;;;;;;;6204362;23;20047;-86
2022/07/20 01:43:44;;;;;;;0.20;0.10;;;;;;;;;;6180636;23;20563;-88
2022/07/20 01:46:10;;;;;;;0.30;0.20;;;;;;;;;;6155541;23;20370;-88
2022/07/20 01:48:36;;;;;;;0.20;0.10;;;;;;;;;;6180848;23;20017;-86
2022/07/20 01:51:02;;;;;;;0.20;0.10;;;;;;;;;;6182229;23;20016;-88
2022/07/20 01:53:28;;;;;;;0.20;0.10;;;;;;;;;;6183217;23;20016;-88
2022/07/20 01:55:54;;;;;;;0.20;0.10;;;;;;;;;;6158344;23;20031;-88
2022/07/20 01:58:21;;;;;;;0.20;0.10;;;;;;;;;;6181994;23;20447;-88
2022/07/20 02:00:50;;;;;;;0.20;0.10;;;;;;;;;;6181125;23;20013;-85
2022/07/20 02:03:17;;;;;;;0.20;0.10;;;;;;;;;;6182472;23;20453;-87
2022/07/20 02:05:43;;;;;;;0.20;0.10;;;;;;;;;;6159174;23;20101;-86
2022/07/20 02:08:09;;;;;;;0.20;0.10;;;;;;;;;;6161178;23;20020;-87
2022/07/20 02:10:35;;;;;;;0.20;0.10;;;;;;;;;;6184574;23;20016;-90
2022/07/20 02:13:02;;;;;;;0.20;0.17;;;;;;;;;;6186202;23;20192;-89
2022/07/20 02:18:13;;;;;;;0.20;0.10;;;;;;;;;;6209921;23;20020;-87
2022/07/20 02:20:40;;;;;;;0.20;0.10;;;;;;;;;;6159054;23;20039;-85
2022/07/20 02:23:07;;;;;;;0.20;0.10;;;;;;;;;;6210685;23;20360;-85
2022/07/20 02:25:35;;;;;;;0.20;0.10;;;;;;;;;;6209682;23;20021;-86
2022/07/20 02:28:01;;;;;;;0.20;0.10;;;;;;;;;;6185389;23;20099;-85
2022/07/20 02:30:27;;;;;;;0.20;0.10;;;;;;;;;;6160103;23;20013;-86
2022/07/20 02:32:56;;;;;;;0.20;0.10;;;;;;;;;;6162796;23;20117;-86
2022/07/20 02:35:22;;;;;;;0.20;0.10;;;;;;;;;;6160298;23;20016;-87
2022/07/20 02:37:48;;;;;;;0.20;0.10;;;;;;;;;;6186009;23;20467;-87
2022/07/20 02:40:14;;;;;;;0.20;0.10;;;;;;;;;;6185321;23;20016;-85
2022/07/20 02:42:40;;;;;;;0.20;0.10;;;;;;;;;;6159559;23;20023;-86
2022/07/20 02:45:06;;;;;;;0.20;0.10;;;;;;;;;;6184582;23;20642;-88
2022/07/20 02:47:41;;;;;;;0.30;0.20;;;;;;;;;;6185066;23;20074;-86
2022/07/20 02:50:07;;;;;;;0.20;0.10;;;;;;;;;;6207919;23;20110;-88
2022/07/20 02:52:33;;;;;;;0.20;0.10;;;;;;;;;;6160578;23;20013;-85
2022/07/20 02:54:59;;;;;;;0.20;0.10;;;;;;;;;;6185304;23;20013;-87
2022/07/20 02:57:25;;;;;;;0.20;0.10;;;;;;;;;;6161644;23;20017;-87
2022/07/20 02:59:51;;;;;;;0.20;0.10;;;;;;;;;;6160493;23;20012;-87
2022/07/20 03:02:17;;;;;;;0.20;0.10;;;;;;;;;;6184449;23;20111;-84
2022/07/20 03:04:43;;;;;;;0.20;0.10;;;;;;;;;;6155283;23;20020;-84
2022/07/20 03:07:09;;;;;;;0.20;0.10;;;;;;;;;;6182010;23;20338;-84
2022/07/20 03:09:35;;;;;;;0.20;0.10;;;;;;;;;;6157205;23;20020;-86
2022/07/20 03:12:01;;;;;;;0.20;0.10;;;;;;;;;;6157193;23;20020;-85
2022/07/20 03:14:27;;;;;;;0.20;0.10;;;;;;;;;;6181871;23;20016;-86
2022/07/20 03:16:53;;;;;;;0.20;0.10;;;;;;;;;;6157201;23;20016;-88
2022/07/20 03:19:20;;;;;;;0.20;0.10;;;;;;;;;;6181071;23;20059;-85
2022/07/20 03:21:46;;;;;;;0.20;0.10;;;;;;;;;;6157196;23;20016;-85
2022/07/20 03:24:12;;;;;;;0.20;0.17;;;;;;;;;;6157993;23;20017;-87
2022/07/20 03:26:38;;;;;;;0.20;0.10;;;;;;;;;;6182490;23;20017;-87
2022/07/20 03:29:04;;;;;;;0.20;0.10;;;;;;;;;;6178851;23;20013;-86
2022/07/20 03:31:30;;;;;;;0.20;0.10;;;;;;;;;;6181136;23;20019;-86
2022/07/20 03:33:56;;;;;;;0.20;0.10;;;;;;;;;;6206548;23;20047;-86
2022/07/20 03:36:22;;;;;;;0.20;0.10;;;;;;;;;;6181146;23;20063;-87
2022/07/20 03:38:48;;;;;;;0.20;0.10;;;;;;;;;;6157128;23;20067;-86
2022/07/20 03:41:14;;;;;;;0.20;0.10;;;;;;;;;;6181512;23;20013;-85
2022/07/20 03:43:40;;;;;;;0.20;0.10;;;;;;;;;;6157266;23;20123;-86
2022/07/20 03:46:06;;;;;;;0.20;0.20;;;;;;;;;;6156555;23;20353;-86
2022/07/20 03:48:32;;;;;;;0.20;0.20;;;;;;;;;;6180324;23;20093;-85
2022/07/20 03:50:59;;;;;;;0.20;0.10;;;;;;;;;;6154873;23;20453;-88
2022/07/20 03:53:25;;;;;;;0.20;0.10;;;;;;;;;;6181280;23;20024;-85
2022/07/20 03:55:51;;;;;;;0.20;0.20;;;;;;;;;;6156964;23;20348;-87
2022/07/20 03:58:17;;;;;;;0.20;0.10;;;;;;;;;;6206306;23;20012;-87
2022/07/20 04:00:43;;;;;;;0.20;0.10;;;;;;;;;;6155646;23;20058;-86
2022/07/20 04:03:09;;;;;;;0.20;0.10;;;;;;;;;;6207102;23;20081;-88
2022/07/20 04:05:35;;;;;;;0.20;0.10;;;;;;;;;;6181355;23;20083;-85
2022/07/20 04:08:01;;;;;;;0.20;0.10;;;;;;;;;;6182238;23;20013;-86
2022/07/20 04:10:27;;;;;;;0.20;0.10;;;;;;;;;;6156939;23;20075;-86
2022/07/20 04:12:53;;;;;;;0.20;0.15;;;;;;;;;;6157387;23;20051;-85
2022/07/20 04:15:19;;;;;;;0.20;0.10;;;;;;;;;;6206655;23;20016;-86
2022/07/20 04:17:45;;;;;;;0.20;0.10;;;;;;;;;;6157152;23;20023;-85
2022/07/20 04:20:12;;;;;;;0.20;0.10;;;;;;;;;;6157533;23;20660;-86
2022/07/20 04:22:38;;;;;;;0.20;0.10;;;;;;;;;;6181595;23;20016;-85
2022/07/20 04:25:04;;;;;;;0.20;0.10;;;;;;;;;;6156594;23;20019;-86
2022/07/20 04:27:30;;;;;;;0.38;0.38;;;;;;;;;;6180266;23;20023;-85
2022/07/20 04:29:56;;;;;;;0.20;0.10;;;;;;;;;;6156644;23;20408;-86
2022/07/20 04:32:22;;;;;;;0.20;0.20;;;;;;;;;;6180547;23;20098;-83
2022/07/20 04:34:48;;;;;;;0.20;0.10;;;;;;;;;;6157344;23;20008;-83
2022/07/20 04:37:14;;;;;;;0.20;0.10;;;;;;;;;;6155976;23;20047;-85
2022/07/20 04:39:40;;;;;;;0.20;0.20;;;;;;;;;;6155089;23;20012;-84
2022/07/20 04:42:06;;;;;;;0.20;0.10;;;;;;;;;;6156391;23;20028;-85
2022/07/20 04:44:32;;;;;;;0.20;0.10;;;;;;;;;;6181902;23;20012;-88
2022/07/20 04:46:58;;;;;;;0.20;0.10;;;;;;;;;;6179785;23;20063;-86
2022/07/20 04:49:24;;;;;;;0.20;0.20;;;;;;;;;;6156225;23;20012;-86
2022/07/20 04:51:50;;;;;;;0.20;0.10;;;;;;;;;;6180171;23;20015;-86
2022/07/20 04:54:18;;;;;;;0.20;0.10;;;;;;;;;;6155691;23;20019;-86
2022/07/20 04:56:44;;;;;;;0.20;0.10;;;;;;;;;;6203832;23;20070;-86
2022/07/20 04:59:10;;;;;;;0.20;0.10;;;;;;;;;;6180809;23;20023;-84
2022/07/20 05:01:36;;;;;;;0.20;0.10;;;;;;;;;;6177020;23;20016;-86
2022/07/20 05:04:03;;;;;;;0.20;0.10;;;;;;;;;;6150541;23;20334;-85
2022/07/20 05:06:29;;;;;;;0.20;0.10;;;;;;;;;;6147827;23;20203;-85
2022/07/20 05:08:55;;;;;;;0.20;0.10;;;;;;;;;;6175113;23;20019;-86
2022/07/20 05:11:21;;;;;;;0.20;0.10;;;;;;;;;;6150687;23;20016;-84
2022/07/20 05:13:47;;;;;;;0.20;0.15;;;;;;;;;;6172382;23;20548;-84
2022/07/20 05:16:13;;;;;;;0.20;0.10;;;;;;;;;;6200394;23;20024;-84
2022/07/20 05:18:39;;;;;;;0.20;0.10;;;;;;;;;;6200133;22;20016;-83
2022/07/20 05:28:21;;;;;;;;;;;;;;;;;;;;;
2022/07/20 05:34:37;;;;;;;0.20;0.10;;;;;;;;;;5856184;24;20597;-89
2022/07/20 05:40:56;;;;;;;0.20;0.10;;;;;;;;;;5857248;24;20485;-86
2022/07/20 05:44:03;;;;;;;0.20;0.10;;;;;;;;;;5834956;24;20438;-89
2022/07/20 05:57:09;;;;;;;0.20;0.10;;;;;;;;;;5830968;24;20110;-86
2022/07/20 06:12:57;;;;;;;0.20;0.10;;;;;;;;;;6002204;23;20046;-88
2022/07/20 06:19:29;;;;;;;0.20;0.10;;;;;;;;;;6002448;23;20067;-88
2022/07/20 06:23:01;;;;;;;;;;;;;;;;;;;;;
2022/07/20 06:40:37;;;;;;;0.20;0.10;;;;;;;;;;6165146;23;20039;-87
2022/07/20 06:43:03;;;;;;;0.20;0.10;;;;;;;;;;6137834;23;20565;-89
2022/07/20 06:45:52;;;;;;;0.20;0.10;;;;;;;;;;6160582;23;20103;-88
2022/07/20 06:48:36;;;;;;;0.20;0.10;;;;;;;;;;6139892;23;20381;-89
2022/07/20 06:51:08;;;;;;;0.20;0.10;;;;;;;;;;6163284;23;20044;-88
2022/07/20 06:56:43;;;;;;;0.20;0.10;;;;;;;;;;6158834;23;20040;-89
2022/07/20 06:59:27;;;;;;;0.20;0.10;;;;;;;;;;6086009;23;20028;-84
2022/07/20 07:02:22;;;;;;;0.20;0.20;;;;;;;;;;6114973;23;20026;-88
2022/07/20 07:05:25;;;;;;;;;;;;;;;;;;;;;
2022/07/20 07:08:00;;;;;;;0.20;0.10;;;;;;;;;;6094325;23;20049;-88
2022/07/20 07:16:37;;;;;;;0.20;0.10;;;;;;;;;;6200451;23;20473;-87
2022/07/20 07:19:25;;;;;;;0.20;0.10;;;;;;;;;;6146154;23;20189;-86
2022/07/20 07:21:59;;;;;;;0.20;0.10;;;;;;;;;;6124468;23;20075;-87
2022/07/20 07:24:29;;;;;;;0.60;0.35;;;;;;;;;;6123043;23;20449;-87
2022/07/20 07:29:31;;;;;;;0.20;0.10;;;;;;;;;;6232068;22;20356;-86
2022/07/20 07:31:58;;;;;;;0.20;0.10;;;;;;;;;;6157657;23;20475;-87
2022/07/20 07:34:28;;;;;;;0.20;0.10;;;;;;;;;;6155403;23;20012;-84
2022/07/20 07:36:55;;;;;;;0.77;0.70;;;;;;;;;;6180342;23;20016;-87
2022/07/20 07:39:21;;;;;;;0.20;0.10;;;;;;;;;;6153668;23;20012;-82
2022/07/20 07:41:50;;;;;;;0.20;0.20;;;;;;;;;;6205024;23;20021;-85
2022/07/20 07:44:16;;;;;;;0.30;0.30;;;;;;;;;;6151013;23;20413;-87
2022/07/20 07:49:15;;;;;;;0.20;0.10;;;;;;;;;;6235284;22;20492;-86
2022/07/20 07:51:42;;;;;;;0.20;0.10;;;;;;;;;;6179247;23;20078;-86
2022/07/20 07:54:08;;;;;;;0.20;0.10;;;;;;;;;;6154317;23;20078;-87
2022/07/20 07:56:34;;;;;;;0.20;0.20;;;;;;;;;;6181254;23;20074;-89
2022/07/20 07:59:03;;;;;;;0.30;0.30;;;;;;;;;;6183279;23;20311;-88
2022/07/20 08:02:26;;;;;;;0.20;0.15;;;;;;;;;;6186582;23;20024;-87
2022/07/20 08:08:16;;;;;;;0.77;0.73;;;;;;;;;;6057727;23;19924;-87
2022/07/20 08:13:48;;;;;;;0.28;0.20;;;;;;;;;;6059488;23;20041;-88
2022/07/20 08:16:28;;;;;;;;;;;;;;;;;;;;;
2022/07/20 08:19:28;;;;;;;0.50;0.50;;;;;;;;;;6054074;23;20093;-91
2022/07/20 08:22:14;;;;;;;0.20;0.20;;;;;;;;;;6068767;23;20024;-88
2022/07/20 08:25:03;;;;;;;0.38;0.38;;;;;;;;;;6124758;23;20044;-88
2022/07/20 08:37:29;;;;;;;0.43;0.40;;;;;;;;;;6168418;23;20013;-88
2022/07/20 08:40:04;;;;;;;1.00;0.50;;;;;;;;;;6159516;23;20016;-88
2022/07/20 08:42:48;;;;;;;0.32;0.32;;;;;;;;;;6139751;23;20017;-91
2022/07/20 08:55:10;;;;;;;0.23;0.23;;;;;;;;;;6064345;23;20921;-90
2022/07/20 08:57:42;;;;;;;0.40;0.40;;;;;;;;;;6116676;23;20076;-88
2022/07/20 09:01:12;;;;;;;;;;;;;;;;;;;;;
2022/07/20 09:04:34;;;;;;;0.20;0.20;;;;;;;;;;6096847;23;20053;-86
2022/07/20 09:07:39;;;;;;;0.95;0.95;;;;;;;;;;6005012;23;20034;-88
2022/07/20 09:10:40;;;;;;;0.80;0.63;;;;;;;;;;6034819;23;20019;-88
2022/07/20 09:13:28;;;;;;;0.40;0.35;;;;;;;;;;6125328;23;20021;-86
2022/07/20 09:16:13;;;;;;;1.25;1.15;;;;;;;;;;6120415;23;20024;-87
2022/07/20 09:18:47;;;;;;;0.45;0.45;;;;;;;;;;6118552;23;20478;-89
2022/07/20 09:21:39;;;;;;;1.75;1.65;;;;;;;;;;6168460;23;20016;-86
2022/07/20 09:24:28;;;;;;;1.60;1.02;;;;;;;;;;6117581;23;20059;-90
2022/07/20 09:27:11;;;;;;;0.20;0.10;;;;;;;;;;6086815;23;20017;-89
2022/07/20 09:41:27;;;;;;;2.28;1.85;;;;;;;;;;6073426;23;20093;-89
2022/07/20 09:46:55;;;;;;;0.35;0.35;;;;;;;;;;6205497;23;20062;-89
2022/07/20 09:52:21;;;;;;;2.58;1.50;;;;;;;;;;6165755;23;20028;-85
2022/07/20 09:54:58;;;;;;;0.63;0.63;;;;;;;;;;6167370;23;20049;-89
2022/07/20 10:00:44;;;;;;;0.70;0.70;;;;;;;;;;6176544;23;20028;-88
2022/07/20 10:03:31;;;;;;;0.68;0.65;;;;;;;;;;6153334;23;20123;-86
2022/07/20 10:06:00;;;;;;;0.85;0.85;;;;;;;;;;6155555;23;20016;-87
2022/07/20 10:08:30;;;;;;;0.55;0.30;;;;;;;;;;6153893;23;20763;-87
2022/07/20 10:10:59;;;;;;;1.45;1.00;;;;;;;;;;6179923;23;20031;-87
2022/07/20 10:13:38;;;;;;;0.57;0.30;;;;;;;;;;6180628;23;20012;-89
2022/07/20 10:16:15;;;;;;;0.28;0.28;;;;;;;;;;6178448;23;20016;-87
2022/07/20 10:19:00;;;;;;;;;;;;;;;;;;;;;
2022/07/20 10:22:19;;;;;;;0.20;0.20;;;;;;;;;;6172550;23;20024;-86
2022/07/20 10:24:47;;;;;;;0.22;0.17;;;;;;;;;;6151037;23;20016;-85
2022/07/20 10:27:22;;;;;;;0.70;0.70;;;;;;;;;;6125332;23;20024;-88
2022/07/20 10:30:06;;;;;;;0.20;0.20;;;;;;;;;;6148531;23;20017;-89
2022/07/20 10:32:56;;;;;;;0.73;0.73;;;;;;;;;;6174068;23;20017;-89
2022/07/20 10:35:45;;;;;;;0.60;0.43;;;;;;;;;;6173653;23;20017;-87
2022/07/20 10:38:11;;;;;;;0.22;0.22;;;;;;;;;;6150379;23;20032;-88
2022/07/20 10:44:18;;;;;;;0.20;0.20;;;;;;;;;;6174314;23;20434;-87
2022/07/20 10:46:48;;;;;;;0.20;0.10;;;;;;;;;;6174751;23;20017;-89
2022/07/20 10:49:14;;;;;;;0.28;0.20;;;;;;;;;;6175966;23;20028;-87
2022/07/20 10:52:02;;;;;;;0.20;0.20;;;;;;;;;;6203513;23;20012;-87
2022/07/20 10:57:31;;;;;;;0.45;0.45;;;;;;;;;;6200212;23;20024;-89
2022/07/20 11:00:21;;;;;;;0.40;0.40;;;;;;;;;;6177351;23;20032;-89
2022/07/20 11:03:31;;;;;;;;;;;;;;;;;;;;;
2022/07/20 11:09:32;;;;;;;0.50;0.43;;;;;;;;;;6195958;23;20021;-86
2022/07/20 11:12:03;;;;;;;0.30;0.30;;;;;;;;;;6178086;23;20033;-87
2022/07/20 11:14:53;;;;;;;0.57;0.57;;;;;;;;;;6177653;23;20631;-87
2022/07/20 11:17:28;;;;;;;0.20;0.17;;;;;;;;;;6201763;23;20035;-88
2022/07/20 11:20:00;;;;;;;0.30;0.30;;;;;;;;;;6182249;23;20020;-88
2022/07/20 11:22:32;;;;;;;0.20;0.10;;;;;;;;;;6178409;23;20023;-87
2022/07/20 11:25:15;;;;;;;0.50;0.38;;;;;;;;;;6177409;23;20453;-86
2022/07/20 11:27:58;;;;;;;0.20;0.20;;;;;;;;;;6152356;23;20179;-87
2022/07/20 11:30:34;;;;;;;0.98;0.95;;;;;;;;;;6202654;23;20031;-88
2022/07/20 11:33:11;;;;;;;0.20;0.20;;;;;;;;;;6174352;23;20020;-87
2022/07/20 11:35:48;;;;;;;0.32;0.32;;;;;;;;;;6174779;23;20016;-89
2022/07/20 11:38:22;;;;;;;0.30;0.30;;;;;;;;;;6173648;23;20658;-85
2022/07/20 11:40:59;;;;;;;0.20;0.10;;;;;;;;;;6151294;23;20537;-86
2022/07/20 11:43:25;;;;;;;0.32;0.32;;;;;;;;;;6199341;23;20081;-87
2022/07/20 11:46:17;;;;;;;0.50;0.50;;;;;;;;;;6178125;23;20024;-89
2022/07/20 11:48:44;;;;;;;0.30;0.30;;;;;;;;;;6181766;23;20021;-86
2022/07/20 11:51:11;;;;;;;0.50;0.35;;;;;;;;;;6187937;23;20219;-89
2022/07/20 11:53:39;;;;;;;0.40;0.30;;;;;;;;;;6187466;23;20044;-91
2022/07/20 11:56:13;;;;;;;0.50;0.50;;;;;;;;;;6188437;23;20013;-87
2022/07/20 11:59:05;;;;;;;0.20;0.20;;;;;;;;;;6187778;23;20023;-87
2022/07/20 12:02:00;;;;;;;2.47;0.63;;;;;;;;;;6213435;23;20016;-87
2022/07/20 12:04:27;;;;;;;0.50;0.50;;;;;;;;;;6185029;23;20013;-85
2022/07/20 12:08:07;;;;;;;0.50;0.50;;;;;;;;;;6157056;23;20020;-86
2022/07/20 12:09:51;;;;;;;0.20;0.10;;;;;;;;;;6208674;23;20095;-85
2022/07/20 12:12:44;;;;;;;0.40;0.40;;;;;;;;;;6192148;23;20467;-90
2022/07/20 12:15:48;;;;;;;0.30;0.30;;;;;;;;;;6201192;23;20865;-89
2022/07/20 12:18:40;;;;;;;0.20;0.20;;;;;;;;;;6115110;23;20017;-92
2022/07/20 12:21:20;;;;;;;0.40;0.30;;;;;;;;;;6192217;23;20082;-91
2022/07/20 12:23:50;;;;;;;0.20;0.20;;;;;;;;;;6166249;23;20336;-87
2022/07/20 12:26:32;;;;;;;0.30;0.30;;;;;;;;;;6195103;23;20020;-89
2022/07/20 12:29:20;;;;;;;0.20;0.10;;;;;;;;;;6174275;23;20028;-88
2022/07/20 12:35:24;;;;;;;1.30;0.55;;;;;;;;;;6133595;23;20031;-87
2022/07/20 12:37:59;;;;;;;0.20;0.15;;;;;;;;;;6169407;23;20024;-90
2022/07/20 12:40:40;;;;;;;0.40;0.40;;;;;;;;;;6171813;23;20013;-88
2022/07/20 12:43:35;;;;;;;0.40;0.25;;;;;;;;;;6201489;23;20119;-90
2022/07/20 12:46:13;;;;;;;0.20;0.10;;;;;;;;;;6180751;23;20067;-89
2022/07/20 12:49:11;;;;;;;0.30;0.30;;;;;;;;;;6201143;23;20016;-90
2022/07/20 12:51:37;;;;;;;0.20;0.20;;;;;;;;;;6167066;23;20051;-86
2022/07/20 12:54:03;;;;;;;0.20;0.20;;;;;;;;;;6169734;23;20016;-87
2022/07/20 12:56:37;;;;;;;0.20;0.20;;;;;;;;;;6200031;23;20483;-85
2022/07/20 12:59:06;;;;;;;0.30;0.30;;;;;;;;;;6140782;23;20532;-88
2022/07/20 13:05:32;;;;;;;0.20;0.10;;;;;;;;;;6116392;23;20056;-88
2022/07/20 13:08:07;;;;;;;0.25;0.25;;;;;;;;;;6159064;23;20017;-88
2022/07/20 13:10:36;;;;;;;0.20;0.10;;;;;;;;;;6177893;23;20461;-92
2022/07/20 13:15:57;;;;;;;0.20;0.20;;;;;;;;;;6199596;23;19915;-87
2022/07/20 13:18:31;;;;;;;0.25;0.25;;;;;;;;;;6179836;23;20554;-88
2022/07/20 13:21:07;;;;;;;2.15;0.65;;;;;;;;;;6174508;23;20013;-89
2022/07/20 13:23:35;;;;;;;0.30;0.20;;;;;;;;;;6177894;23;20023;-85
2022/07/20 13:26:02;;;;;;;0.47;0.47;;;;;;;;;;6181702;23;20095;-86
2022/07/20 13:28:33;;;;;;;0.30;0.30;;;;;;;;;;6177215;23;20883;-89
2022/07/20 13:31:02;;;;;;;2.80;1.15;;;;;;;;;;6159464;23;20401;-87
2022/07/20 13:33:31;;;;;;;0.20;0.13;;;;;;;;;;6176244;23;20507;-89
2022/07/20 13:36:08;;;;;;;1.15;1.08;;;;;;;;;;6172651;23;20016;-86
2022/07/20 13:41:27;;;;;;;0.20;0.20;;;;;;;;;;6199331;23;20814;-88
2022/07/20 13:43:54;;;;;;;0.30;0.30;;;;;;;;;;6178819;23;20062;-86
2022/07/20 13:46:20;;;;;;;0.20;0.20;;;;;;;;;;6177269;23;20013;-86
2022/07/20 13:48:56;;;;;;;0.50;0.25;;;;;;;;;;6180655;23;20071;-90
2022/07/20 13:51:34;;;;;;;1.13;0.63;;;;;;;;;;6180829;23;20079;-87
2022/07/20 13:54:02;;;;;;;0.20;0.10;;;;;;;;;;6183081;23;20063;-88
2022/07/20 13:56:31;;;;;;;0.75;0.75;;;;;;;;;;6125371;23;20041;-88
2022/07/20 13:59:01;;;;;;;0.50;0.50;;;;;;;;;;6121798;23;20024;-89
2022/07/20 14:01:29;;;;;;;0.40;0.40;;;;;;;;;;6120665;23;20563;-86
2022/07/20 14:03:58;;;;;;;0.65;0.65;;;;;;;;;;6124985;23;20028;-87
2022/07/20 14:06:25;;;;;;;0.90;0.73;;;;;;;;;;6124881;23;20013;-86
2022/07/20 14:08:51;;;;;;;0.75;0.68;;;;;;;;;;6124123;23;20578;-87
2022/07/20 14:11:20;;;;;;;0.20;0.20;;;;;;;;;;6122395;23;20490;-88
2022/07/20 14:13:47;;;;;;;0.20;0.10;;;;;;;;;;6148526;23;20051;-87
2022/07/20 14:16:13;;;;;;;0.47;0.47;;;;;;;;;;6123723;23;20092;-88
2022/07/20 14:18:42;;;;;;;0.20;0.20;;;;;;;;;;6124556;23;20469;-87
2022/07/20 14:21:10;;;;;;;0.20;0.20;;;;;;;;;;6123016;23;20023;-87
2022/07/20 14:23:45;;;;;;;0.20;0.10;;;;;;;;;;6120916;23;20032;-88
2022/07/20 14:26:13;;;;;;;0.20;0.10;;;;;;;;;;6117482;23;20013;-84
2022/07/20 14:28:42;;;;;;;0.20;0.10;;;;;;;;;;6175968;23;20016;-86
2022/07/20 14:31:21;;;;;;;0.20;0.10;;;;;;;;;;6183401;23;20016;-88
2022/07/20 14:33:54;;;;;;;0.20;0.15;;;;;;;;;;6205676;23;20070;-87
2022/07/20 14:36:20;;;;;;;0.55;0.55;;;;;;;;;;6179594;23;20102;-87
2022/07/20 14:39:04;;;;;;;0.20;0.10;;;;;;;;;;6179994;23;20024;-86
2022/07/20 14:42:24;;;;;;;0.20;0.20;;;;;;;;;;6204280;23;20020;-89
2022/07/20 14:44:43;;;;;;;0.20;0.10;;;;;;;;;;6143841;23;20342;-87
2022/07/20 14:47:11;;;;;;;0.20;0.10;;;;;;;;;;6097778;23;20028;-88
2022/07/20 14:49:38;;;;;;;0.28;0.17;;;;;;;;;;6164373;23;20381;-87
2022/07/20 14:52:07;;;;;;;0.20;0.20;;;;;;;;;;6203702;23;20119;-88
2022/07/20 14:54:41;;;;;;;0.20;0.10;;;;;;;;;;6178231;23;20075;-86
2022/07/20 14:57:10;;;;;;;0.20;0.10;;;;;;;;;;6173792;23;20021;-85
2022/07/20 14:59:57;;;;;;;;;;;;;;;;;;;;;
2022/07/20 15:02:33;;;;;;;0.20;0.10;;;;;;;;;;6182517;23;20288;-87
2022/07/20 15:05:00;;;;;;;0.20;0.10;;;;;;;;;;6177089;23;20416;-85
2022/07/20 15:07:29;;;;;;;0.22;0.15;;;;;;;;;;6179577;23;20665;-88
2022/07/20 15:10:16;;;;;;;0.20;0.20;;;;;;;;;;6205289;23;20449;-88
2022/07/20 15:12:44;;;;;;;0.20;0.10;;;;;;;;;;6197001;23;20758;-85
2022/07/20 15:15:10;;;;;;;0.20;0.17;;;;;;;;;;6197720;23;20874;-84
2022/07/20 15:17:39;;;;;;;0.20;0.10;;;;;;;;;;6152013;23;20021;-88
2022/07/20 15:20:12;;;;;;;0.20;0.20;;;;;;;;;;6177457;23;20016;-87
2022/07/20 15:22:59;;;;;;;0.47;0.30;;;;;;;;;;6175414;23;20463;-90
2022/07/20 15:25:25;;;;;;;0.30;0.30;;;;;;;;;;6171695;23;20743;-88
2022/07/20 15:27:51;;;;;;;0.57;0.25;;;;;;;;;;6196608;23;20020;-85
2022/07/20 15:30:56;;;;;;;0.20;0.10;;;;;;;;;;6174030;23;20090;-89
2022/07/20 15:33:35;;;;;;;0.20;0.10;;;;;;;;;;6137060;23;20709;-88
2022/07/20 15:36:25;;;;;;;0.20;0.10;;;;;;;;;;6179741;23;20826;-86
2022/07/20 15:39:18;;;;;;;0.57;0.22;;;;;;;;;;6202752;23;20078;-88
2022/07/20 15:42:06;;;;;;;0.20;0.10;;;;;;;;;;6180824;23;20252;-86
2022/07/20 15:48:35;;;;;;;0.20;0.13;;;;;;;;;;6193006;23;20027;-88
2022/07/20 15:54:36;;;;;;;0.20;0.10;;;;;;;;;;6155591;22;20048;-86
2022/07/20 16:26:40;;;;;;;0.20;0.10;;;;;;;;;;6229981;22;20034;-87
2022/07/20 16:32:56;;;;;;;0.20;0.20;;;;;;;;;;6216057;22;20023;-87
2022/07/20 16:43:51;;;;;;;0.20;0.10;;;;;;;;;;6254150;22;20668;-87
2022/07/20 16:46:41;;;;;;;0.20;0.10;;;;;;;;;;6245842;22;20035;-87
2022/07/20 16:49:10;;;;;;;1.30;0.30;;;;;;;;;;6228995;23;20020;-89
2022/07/20 16:52:03;;;;;;;0.20;0.10;;;;;;;;;;6187917;23;20356;-90
2022/07/20 16:54:29;;;;;;;0.35;0.22;;;;;;;;;;6185363;23;20023;-84
2022/07/20 16:56:57;;;;;;;0.20;0.10;;;;;;;;;;6185494;23;20013;-86
2022/07/20 17:02:38;;;;;;;0.20;0.10;;;;;;;;;;6186846;23;20016;-88
2022/07/20 17:05:43;;;;;;;0.20;0.17;;;;;;;;;;6182073;23;20012;-93
2022/07/20 17:08:28;;;;;;;0.20;0.10;;;;;;;;;;6176333;23;20059;-91
2022/07/20 17:10:54;;;;;;;0.25;0.20;;;;;;;;;;6184944;23;20012;-87
2022/07/20 17:13:32;;;;;;;0.20;0.10;;;;;;;;;;6181493;23;20035;-87
2022/07/20 17:16:13;;;;;;;0.22;0.22;;;;;;;;;;6208231;23;20008;-90
2022/07/20 17:22:23;;;;;;;0.22;0.13;;;;;;;;;;6172013;23;20025;-89
2022/07/20 17:25:19;;;;;;;0.40;0.20;;;;;;;;;;6122277;23;20462;-85
2022/07/20 17:27:48;;;;;;;0.20;0.10;;;;;;;;;;6101401;23;20791;-89
2022/07/20 17:30:15;;;;;;;0.20;0.10;;;;;;;;;;6122285;23;20009;-85
2022/07/20 17:32:48;;;;;;;0.20;0.20;;;;;;;;;;6122703;23;20049;-87
2022/07/20 17:35:19;;;;;;;0.20;0.10;;;;;;;;;;6146073;23;20018;-90
2022/07/20 17:43:48;;;;;;;0.20;0.10;;;;;;;;;;6175946;23;20051;-86
2022/07/20 17:46:14;;;;;;;0.20;0.10;;;;;;;;;;6152957;23;20031;-86
2022/07/20 17:48:49;;;;;;;0.20;0.13;;;;;;;;;;6161446;23;20017;-90
2022/07/20 17:51:21;;;;;;;0.20;0.10;;;;;;;;;;6180902;23;20035;-89
2022/07/20 18:09:44;;;;;;;0.20;0.10;;;;;;;;;;6231085;23;20066;-87
2022/07/20 18:13:01;;;;;;;0.20;0.10;;;;;;;;;;6057206;23;20116;-86
2022/07/20 18:25:51;;;;;;;;;;;;;;;;;;;;;
2022/07/20 18:44:33;;;;;;;0.35;0.35;;;;;;;;;;6254495;22;20034;-91
2022/07/20 20:13:34;;;;;;;0.20;0.10;;;;;;;;;;6269262;22;20038;-88
2022/07/20 20:16:12;;;;;;;;;;;;;;;;;;;;;
2022/07/20 20:32:36;;;;;;;;;;;;;;;;;;;;;
2022/07/20 20:38:31;;;;;;;0.30;0.20;;;;;;;;;;5968574;24;20728;-87
2022/07/20 20:41:23;;;;;;;0.20;0.10;;;;;;;;;;6034742;23;20393;-87
2022/07/20 20:47:26;;;;;;;0.20;0.10;;;;;;;;;;6083026;23;20081;-87
2022/07/20 20:49:54;;;;;;;0.22;0.20;;;;;;;;;;6008835;23;20026;-85
2022/07/20 20:55:47;;;;;;;0.20;0.10;;;;;;;;;;6154311;23;20023;-88
2022/07/20 21:01:55;;;;;;;;;;;;;;;;;;6253673;22;20011;-90
2022/07/20 21:08:18;;;;;;;;;;;;;;;;;;;;;
2022/07/20 21:35:02;;;;;;;0.20;0.10;;;;;;;;;;5931737;24;20016;-90
2022/07/20 21:41:16;;;;;;;0.20;0.10;;;;;;;;;;5924157;24;20510;-89
2022/07/20 21:51:48;;;;;;;0.20;0.10;;;;;;;;;;5788045;24;20019;-90
2022/07/20 21:54:14;;;;;;;0.25;0.25;;;;;;;;;;5736229;24;20012;-90
2022/07/20 22:43:13;;;;;;;0.20;0.10;;;;;;;;;;6208911;22;20055;-89
2022/07/20 22:52:58;;;;;;;0.40;0.35;;;;;;;;;;6096677;23;20426;-89
2022/07/20 23:16:01;;;;;;;0.20;0.10;;;;;;;;;;6240849;23;20054;-89
2022/07/20 23:25:39;;;;;;;0.20;0.10;;;;;;;;;;6205196;23;20063;-88
2022/07/20 23:28:19;;;;;;;0.20;0.10;;;;;;;;;;6156648;23;20012;-90
2022/07/20 23:30:45;;;;;;;0.20;0.10;;;;;;;;;;6157092;23;20008;-89
2022/07/20 23:33:28;;;;;;;0.20;0.10;;;;;;;;;;6155909;23;20096;-88
2022/07/20 23:36:13;;;;;;;0.20;0.10;;;;;;;;;;6162984;23;20055;-89
2022/07/20 23:38:46;;;;;;;0.20;0.10;;;;;;;;;;6132857;23;20016;-88